< < Back
Terminal Aerodrome Forecast


Current Version              Previous Versions:   1  2  3  4  5  6  7  8  9  

Terminal Aerodrome Forecast

350
FTUS42 KFFC 200538
TAFATL
TAF
KATL 200538Z 2006/2112 33005KT P6SM -RA SCT050 BKN070 OVC100
     FM200800 01003KT 6SM -RA BR OVC040
     FM201000 03004KT 6SM -RA BR OVC025
     FM201400 05005KT P6SM VCSH OVC028
     FM201900 08005KT P6SM BKN035
     FM202200 35004KT P6SM SCT050
     FM210700 05004KT 5SM BR OVC025=

Latest METAR

810
SAUS70 KWBC 200400 RRQ
MTRATL
METAR KATL 200452Z 33004KT 10SM -RA BKN070 OVC090 06/02 A3015 RMK AO2
SLP212 P0001 T00610017 401280033


USA.gov is the U.S. government's official web portal to all federal, state and local government web resources and services.